Time;durP1;ratioP1;P1;durP2;ratioP2;P2;SDS_P1;SDS_P2;PMS_P1;PMS_P2;Temp;Humidity;BMP_temperature;BMP_pressure;BME280_temperature;BME280_humidity;BME280_pressure;Samples;Min_cycle;Max_cycle;Signal;HPM_P1;HPM_P2
2022/05/22 00:01:45;;;;;;;7.97;3.28;;;27.80;42.70;;;;;;7684161;23;20288;-68
2022/05/22 00:04:46;;;;;;;11.43;3.60;;;27.80;42.40;;;;;;7684416;23;20016;-68
2022/05/22 00:07:47;;;;;;;12.25;4.18;;;27.80;42.50;;;;;;7710246;23;20012;-67
2022/05/22 00:10:48;;;;;;;11.40;3.83;;;27.70;42.60;;;;;;7683909;23;20016;-68
2022/05/22 00:13:51;;;;;;;13.27;3.45;;;27.70;42.60;;;;;;7711447;23;20016;-68
2022/05/22 00:16:53;;;;;;;7.68;3.63;;;27.60;42.70;;;;;;7686433;23;20319;-69
2022/05/22 00:19:54;;;;;;;8.70;3.60;;;27.60;42.50;;;;;;7710811;23;20027;-69
2022/05/22 00:22:55;;;;;;;8.75;3.40;;;27.60;42.30;;;;;;7685729;23;20091;-69
2022/05/22 00:25:56;;;;;;;5.80;3.13;;;27.50;42.10;;;;;;7711861;23;20016;-69
2022/05/22 00:28:57;;;;;;;12.23;2.63;;;27.50;42.00;;;;;;7711266;23;20047;-69
2022/05/22 00:31:58;;;;;;;8.52;3.50;;;27.50;41.80;;;;;;7710432;23;20099;-69
2022/05/22 00:34:59;;;;;;;8.52;3.25;;;27.40;41.70;;;;;;7660819;23;20023;-69
2022/05/22 00:38:00;;;;;;;6.82;2.90;;;27.40;41.60;;;;;;7686030;23;20013;-69
2022/05/22 00:41:01;;;;;;;7.50;3.33;;;27.50;41.50;;;;;;7685395;23;20458;-68
2022/05/22 00:44:04;;;;;;;12.18;2.85;;;27.40;41.30;;;;;;7685633;23;20479;-68
2022/05/22 00:47:05;;;;;;;6.00;3.08;;;27.40;41.20;;;;;;7685253;23;20428;-69
2022/05/22 00:50:06;;;;;;;12.05;3.80;;;27.30;41.10;;;;;;7686145;23;20055;-69
2022/05/22 00:53:07;;;;;;;9.82;3.60;;;27.30;41.10;;;;;;7711229;23;20340;-68
2022/05/22 00:56:12;;;;;;;8.80;3.25;;;27.20;41.00;;;;;;7685160;23;20020;-68
2022/05/22 00:59:20;;;;;;;9.95;3.17;;;27.20;41.00;;;;;;7711747;23;20074;-69
2022/05/22 01:02:21;;;;;;;7.00;2.90;;;27.20;41.00;;;;;;7684184;23;20026;-69
2022/05/22 01:05:23;;;;;;;10.40;3.20;;;27.20;41.10;;;;;;7685396;23;20048;-68
2022/05/22 01:08:24;;;;;;;8.25;3.80;;;27.10;41.30;;;;;;7684421;23;20028;-69
2022/05/22 01:11:32;;;;;;;6.63;3.13;;;27.10;41.50;;;;;;7685396;23;20348;-68
2022/05/22 01:14:35;;;;;;;12.45;3.53;;;27.00;41.80;;;;;;7685210;23;20095;-68
2022/05/22 01:17:47;;;;;;;9.73;3.60;;;27.00;41.80;;;;;;7685420;23;20020;-68
2022/05/22 01:20:51;;;;;;;8.60;3.05;;;26.90;42.00;;;;;;7684035;23;20123;-68
2022/05/22 01:23:56;;;;;;;7.53;3.13;;;26.90;42.10;;;;;;7710498;23;20028;-68
2022/05/22 01:27:03;;;;;;;12.65;3.67;;;26.80;42.20;;;;;;7685414;23;20017;-69
2022/05/22 01:30:27;;;;;;;11.88;3.83;;;26.80;42.30;;;;;;7686421;23;20042;-68
2022/05/22 01:33:37;;;;;;;9.38;3.65;;;26.80;42.50;;;;;;7661663;23;20096;-68
2022/05/22 01:36:39;;;;;;;5.72;2.88;;;26.70;42.60;;;;;;7660412;23;20091;-67
2022/05/22 01:39:41;;;;;;;13.60;3.55;;;26.70;42.70;;;;;;7684378;23;20044;-67
2022/05/22 01:42:42;;;;;;;13.23;3.35;;;26.70;42.60;;;;;;7685710;23;20095;-68
2022/05/22 01:45:45;;;;;;;3.92;2.58;;;26.70;42.50;;;;;;7661541;23;20308;-68
2022/05/22 01:48:46;;;;;;;10.13;2.90;;;26.70;42.20;;;;;;7661423;23;20027;-67
2022/05/22 01:51:51;;;;;;;8.43;2.95;;;26.70;42.00;;;;;;7685721;23;20435;-68
2022/05/22 01:54:52;;;;;;;5.55;3.05;;;26.70;41.90;;;;;;7711680;23;20017;-68
2022/05/22 01:57:53;;;;;;;13.07;2.60;;;26.70;42.00;;;;;;7659696;23;20051;-68
2022/05/22 02:00:57;;;;;;;6.60;3.42;;;26.60;41.90;;;;;;7684021;23;20016;-69
2022/05/22 02:03:58;;;;;;;10.02;3.35;;;26.60;42.00;;;;;;7685368;23;20420;-68
2022/05/22 02:10:26;;;;;;;10.60;3.20;;;26.40;42.20;;;;;;7684315;23;20027;-68
2022/05/22 02:13:38;;;;;;;11.18;3.63;;;26.30;42.40;;;;;;7685820;23;20487;-68
2022/05/22 02:16:42;;;;;;;8.93;3.55;;;26.30;42.60;;;;;;7684961;23;20023;-68
2022/05/22 02:19:43;;;;;;;6.65;2.92;;;26.30;42.80;;;;;;7660409;23;20439;-68
2022/05/22 02:22:51;;;;;;;11.55;3.33;;;26.20;42.70;;;;;;7685612;23;20027;-68
2022/05/22 02:25:54;;;;;;;7.13;3.42;;;26.20;43.00;;;;;;7684918;23;20020;-68
2022/05/22 02:28:55;;;;;;;9.05;3.38;;;26.20;44.10;;;;;;7711401;23;20420;-68
2022/05/22 02:31:56;;;;;;;12.05;3.70;;;26.20;44.10;;;;;;7645725;23;20012;-68
2022/05/22 02:34:57;;;;;;;8.40;2.88;;;26.10;44.20;;;;;;7684397;23;20012;-68
2022/05/22 02:37:58;;;;;;;10.88;3.60;;;26.10;44.10;;;;;;7659079;23;20088;-68
2022/05/22 02:41:16;;;;;;;9.00;3.80;;;26.10;44.00;;;;;;7684275;23;20013;-68
2022/05/22 02:44:23;;;;;;;11.10;3.40;;;26.10;43.90;;;;;;7685539;23;20009;-69
2022/05/22 02:47:25;;;;;;;6.43;3.20;;;26.10;43.70;;;;;;7711688;23;20075;-69
2022/05/22 02:50:30;;;;;;;11.20;3.83;;;26.20;43.80;;;;;;7685344;23;20017;-68
2022/05/22 02:53:41;;;;;;;9.38;3.47;;;26.20;43.90;;;;;;7685298;23;20017;-68
2022/05/22 02:57:11;;;;;;;6.60;3.00;;;26.20;43.60;;;;;;7670305;23;20012;-68
2022/05/22 03:00:18;;;;;;;10.45;3.00;;;26.20;43.20;;;;;;7685366;23;20412;-67
2022/05/22 03:03:22;;;;;;;7.97;3.13;;;26.10;43.00;;;;;;7685114;23;20090;-69
2022/05/22 03:06:38;;;;;;;6.13;3.00;;;26.10;43.00;;;;;;7684994;23;20360;-68
2022/05/22 03:09:41;;;;;;;7.40;3.10;;;26.00;42.90;;;;;;7660866;23;20031;-68
2022/05/22 03:12:42;;;;;;;14.13;3.20;;;26.00;42.90;;;;;;7683616;23;20112;-67
2022/05/22 03:15:45;;;;;;;8.27;3.08;;;26.00;43.00;;;;;;7661120;23;20021;-69
2022/05/22 03:18:46;;;;;;;10.43;3.17;;;25.90;43.00;;;;;;7709484;23;20312;-68
2022/05/22 03:21:53;;;;;;;6.93;2.87;;;25.90;43.00;;;;;;7685587;23;20099;-67
2022/05/22 03:24:54;;;;;;;7.95;3.95;;;25.90;43.00;;;;;;7711860;23;20411;-69
2022/05/22 03:27:55;;;;;;;7.88;3.70;;;25.90;43.10;;;;;;7684560;23;20078;-67
2022/05/22 03:30:56;;;;;;;7.32;3.70;;;25.80;43.10;;;;;;7684904;23;20043;-68
2022/05/22 03:33:57;;;;;;;9.20;4.03;;;25.80;43.80;;;;;;7684567;23;20362;-68
2022/05/22 03:36:59;;;;;;;8.32;3.40;;;25.80;44.40;;;;;;7685277;23;20017;-68
2022/05/22 03:40:00;;;;;;;10.00;3.63;;;25.80;44.80;;;;;;7686038;23;20008;-67
2022/05/22 03:43:02;;;;;;;5.53;3.25;;;25.80;45.30;;;;;;7685879;23;20312;-68
2022/05/22 03:46:02;;;;;;;13.23;3.88;;;25.80;45.60;;;;;;7686175;23;20021;-68
2022/05/22 03:49:05;;;;;;;10.35;3.42;;;25.70;45.90;;;;;;7672390;23;20146;-68
2022/05/22 03:52:10;;;;;;;5.50;2.92;;;25.70;46.40;;;;;;7686245;23;20360;-67
2022/05/22 03:55:14;;;;;;;8.45;3.80;;;25.70;46.60;;;;;;7661295;23;20016;-67
2022/05/22 03:58:18;;;;;;;8.25;4.03;;;25.60;46.80;;;;;;7662780;23;20020;-68
2022/05/22 04:01:23;;;;;;;10.93;3.38;;;25.60;47.00;;;;;;7686722;23;20016;-68
2022/05/22 04:04:31;;;;;;;17.40;3.78;;;25.60;47.20;;;;;;7688161;23;20043;-69
2022/05/22 04:07:40;;;;;;;7.90;3.95;;;25.60;47.60;;;;;;7687161;23;20075;-68
2022/05/22 04:10:43;;;;;;;7.18;3.55;;;25.60;48.00;;;;;;7663549;23;20013;-69
2022/05/22 04:13:44;;;;;;;10.73;4.05;;;25.50;48.20;;;;;;7687814;23;20031;-68
2022/05/22 04:16:45;;;;;;;8.55;4.32;;;25.50;48.40;;;;;;7687860;23;20083;-69
2022/05/22 04:19:46;;;;;;;6.88;3.65;;;25.30;48.40;;;;;;7662490;23;20345;-68
2022/05/22 04:26:09;;;;;;;8.50;4.35;;;25.40;48.50;;;;;;7686545;23;20020;-67
2022/05/22 04:29:10;;;;;;;12.93;3.88;;;25.40;48.60;;;;;;7663158;23;20008;-69
2022/05/22 04:32:11;;;;;;;15.00;4.20;;;25.40;48.60;;;;;;7686998;23;20336;-68
2022/05/22 04:35:27;;;;;;;8.63;4.03;;;25.30;48.70;;;;;;7687396;23;20005;-68
2022/05/22 04:38:28;;;;;;;11.60;4.75;;;25.30;48.80;;;;;;7713478;23;20024;-68
2022/05/22 04:41:28;;;;;;;12.18;4.60;;;25.30;48.90;;;;;;7686924;23;20013;-67
2022/05/22 04:44:30;;;;;;;12.88;5.13;;;25.20;49.00;;;;;;7662641;23;20374;-68
2022/05/22 04:47:49;;;;;;;10.05;5.00;;;25.20;49.20;;;;;;7684946;23;20017;-68
2022/05/22 04:50:51;;;;;;;10.15;5.10;;;25.20;49.40;;;;;;7685552;23;20020;-67
2022/05/22 04:53:58;;;;;;;12.80;5.72;;;25.10;49.60;;;;;;7711546;23;20951;-68
2022/05/22 04:57:05;;;;;;;13.57;5.88;;;25.20;49.90;;;;;;7710741;23;20324;-68
2022/05/22 05:00:09;;;;;;;12.75;5.43;;;25.10;50.00;;;;;;7684821;23;20020;-68
2022/05/22 05:03:14;;;;;;;16.63;5.38;;;25.10;50.20;;;;;;7684627;23;20031;-67
2022/05/22 05:06:16;;;;;;;14.75;5.90;;;25.10;50.30;;;;;;7661258;23;20024;-68
2022/05/22 05:09:18;;;;;;;11.02;4.25;;;25.00;50.30;;;;;;7661823;23;20095;-69
2022/05/22 05:12:20;;;;;;;22.27;5.25;;;25.00;50.40;;;;;;7662276;23;20071;-67
2022/05/22 05:15:21;;;;;;;10.73;4.35;;;25.00;50.40;;;;;;7713957;23;20016;-67
2022/05/22 05:18:30;;;;;;;9.38;4.65;;;24.90;50.40;;;;;;7686799;23;20021;-68
2022/05/22 05:21:31;;;;;;;15.27;4.53;;;24.90;50.50;;;;;;7674464;23;20024;-67
2022/05/22 05:24:35;;;;;;;8.70;4.35;;;25.00;50.40;;;;;;7675439;23;20324;-70
2022/05/22 05:27:38;;;;;;;13.20;4.60;;;25.10;50.30;;;;;;7675386;23;20475;-68
2022/05/22 05:30:47;;;;;;;13.48;4.07;;;25.10;50.10;;;;;;7652128;23;20028;-68
2022/05/22 05:33:48;;;;;;;7.40;3.88;;;25.20;50.00;;;;;;7674597;23;20048;-68
2022/05/22 05:36:56;;;;;;;8.75;4.80;;;25.30;49.90;;;;;;7652134;23;20037;-67
2022/05/22 05:40:03;;;;;;;5.85;3.63;;;25.30;49.70;;;;;;7676330;23;20032;-67
2022/05/22 05:43:11;;;;;;;15.52;3.85;;;25.40;49.60;;;;;;7676638;23;20009;-70
2022/05/22 05:46:12;;;;;;;11.27;4.18;;;25.50;49.50;;;;;;7652467;23;20102;-68
2022/05/22 05:49:14;;;;;;;10.40;4.72;;;25.50;49.40;;;;;;7675874;23;20021;-67
2022/05/22 05:52:18;;;;;;;9.18;4.15;;;25.50;49.30;;;;;;7652707;23;20032;-68
2022/05/22 05:55:28;;;;;;;9.68;3.72;;;25.60;49.30;;;;;;7676632;23;20013;-68
2022/05/22 05:58:53;;;;;;;9.52;4.13;;;25.70;49.10;;;;;;7545559;23;20015;-68
2022/05/22 06:02:05;;;;;;;6.85;3.67;;;25.80;48.90;;;;;;7562233;23;20081;-68
2022/05/22 06:05:07;;;;;;;10.75;3.80;;;25.90;48.80;;;;;;7565976;23;20489;-67
2022/05/22 06:08:08;;;;;;;12.40;4.10;;;25.90;48.70;;;;;;7541205;23;20014;-67
2022/05/22 06:11:09;;;;;;;8.07;3.72;;;26.00;48.60;;;;;;7542055;23;20271;-68
2022/05/22 06:14:15;;;;;;;5.05;3.22;;;26.00;48.40;;;;;;7565103;23;20022;-69
2022/05/22 06:17:16;;;;;;;7.28;3.60;;;26.00;48.40;;;;;;7541477;23;20086;-68
2022/05/22 06:20:20;;;;;;;7.13;3.85;;;26.00;48.20;;;;;;7564770;23;20031;-68
2022/05/22 06:23:21;;;;;;;10.25;3.70;;;26.10;48.10;;;;;;7564813;23;20096;-68
2022/05/22 06:26:40;;;;;;;6.00;3.35;;;26.20;47.90;;;;;;7562463;23;20077;-68
2022/05/22 06:30:15;;;;;;;10.00;3.72;;;26.30;47.70;;;;;;7519570;23;20093;-69
2022/05/22 06:33:47;;;;;;;9.82;4.10;;;26.30;47.30;;;;;;7554974;23;20065;-68
2022/05/22 06:37:05;;;;;;;10.15;3.63;;;26.40;47.00;;;;;;7684033;23;20032;-69
2022/05/22 06:40:26;;;;;;;14.93;4.07;;;26.60;46.70;;;;;;7560320;23;20153;-68
2022/05/22 06:43:51;;;;;;;8.55;4.18;;;26.60;46.30;;;;;;7554374;23;20093;-68
2022/05/22 06:47:15;;;;;;;10.68;3.33;;;26.60;46.10;;;;;;7452627;23;20028;-67
2022/05/22 06:50:36;;;;;;;5.93;3.90;;;26.60;46.20;;;;;;7453233;23;20016;-69
2022/05/22 06:54:00;;;;;;;9.00;3.72;;;26.60;46.20;;;;;;7383459;24;20028;-67
2022/05/22 06:57:20;;;;;;;8.50;3.85;;;26.80;46.30;;;;;;7360366;24;20064;-68
2022/05/22 07:00:53;;;;;;;6.53;3.65;;;26.80;46.20;;;;;;7281263;24;20029;-67
2022/05/22 07:04:16;;;;;;;8.73;4.07;;;26.90;46.20;;;;;;7281369;24;20022;-69
2022/05/22 07:07:43;;;;;;;12.32;4.32;;;26.90;46.20;;;;;;7265758;24;20017;-69
2022/05/22 07:11:38;;;;;;;13.18;4.22;;;26.90;46.20;;;;;;7262726;24;20018;-68
2022/05/22 07:15:03;;;;;;;9.00;4.43;;;26.90;46.00;;;;;;7280180;24;20018;-69
2022/05/22 07:18:29;;;;;;;14.00;3.80;;;27.00;45.80;;;;;;7343101;24;20238;-69
2022/05/22 07:21:49;;;;;;;11.38;4.00;;;27.10;45.60;;;;;;7349365;24;20037;-69
2022/05/22 07:25:08;;;;;;;14.05;4.75;;;27.20;45.50;;;;;;7410194;24;20084;-68
2022/05/22 07:28:27;;;;;;;9.13;4.05;;;27.30;45.80;;;;;;7395369;24;20316;-69
2022/05/22 07:31:56;;;;;;;17.08;3.97;;;27.30;45.10;;;;;;7513137;23;20010;-68
2022/05/22 07:35:16;;;;;;;15.60;4.38;;;27.30;45.00;;;;;;7560472;23;20107;-68
2022/05/22 07:38:36;;;;;;;9.38;4.15;;;27.40;44.80;;;;;;7687778;23;20012;-69
2022/05/22 07:41:55;;;;;;;9.23;3.75;;;27.50;44.40;;;;;;7687111;23;20355;-68
2022/05/22 07:45:07;;;;;;;9.20;3.83;;;27.60;44.20;;;;;;7684482;23;20020;-69
2022/05/22 07:48:27;;;;;;;6.50;3.25;;;27.60;44.20;;;;;;7710818;23;20321;-69
2022/05/22 07:51:41;;;;;;;9.70;3.45;;;27.70;44.20;;;;;;7683199;23;20009;-69
2022/05/22 07:55:01;;;;;;;10.40;4.00;;;27.80;44.20;;;;;;7711029;23;20024;-68
2022/05/22 07:58:26;;;;;;;16.38;4.05;;;27.90;44.20;;;;;;7662887;23;20040;-67
2022/05/22 08:01:41;;;;;;;8.48;3.58;;;28.00;44.10;;;;;;7685638;23;20100;-68
2022/05/22 08:04:57;;;;;;;12.27;3.80;;;28.10;44.20;;;;;;7694662;23;20009;-69
2022/05/22 08:08:10;;;;;;;9.43;3.97;;;28.10;44.00;;;;;;7683856;23;20054;-69
2022/05/22 08:11:29;;;;;;;16.33;4.22;;;28.30;44.10;;;;;;7663011;23;20019;-69
2022/05/22 08:14:37;;;;;;;11.50;4.63;;;28.50;44.10;;;;;;7683886;23;20035;-68
2022/05/22 08:17:39;;;;;;;9.10;3.90;;;28.60;43.90;;;;;;7658909;23;20092;-69
2022/05/22 08:20:43;;;;;;;8.02;3.03;;;28.70;43.70;;;;;;7658593;23;20025;-68
2022/05/22 08:23:47;;;;;;;12.93;3.67;;;28.90;43.40;;;;;;7685121;23;20071;-69
2022/05/22 08:26:57;;;;;;;8.98;3.63;;;29.00;42.90;;;;;;7683703;23;20012;-67
2022/05/22 08:30:07;;;;;;;8.23;3.60;;;29.10;42.30;;;;;;7659896;23;20074;-68
2022/05/22 08:33:11;;;;;;;7.28;3.05;;;29.20;41.90;;;;;;7657365;23;20025;-69
2022/05/22 08:36:13;;;;;;;9.88;3.33;;;29.30;41.40;;;;;;7659086;23;20526;-68
2022/05/22 08:39:14;;;;;;;12.15;3.67;;;29.30;41.00;;;;;;7683606;23;20016;-70
2022/05/22 08:42:24;;;;;;;8.68;3.40;;;29.40;40.90;;;;;;7658640;23;20017;-69
2022/05/22 08:45:30;;;;;;;7.53;3.42;;;29.40;40.70;;;;;;7708882;23;20013;-75
2022/05/22 08:48:57;;;;;;;11.98;3.50;;;29.50;40.50;;;;;;7683466;23;20024;-71
2022/05/22 08:52:09;;;;;;;11.45;3.47;;;29.60;40.40;;;;;;7681735;23;20031;-75
2022/05/22 08:58:56;;;;;;;15.75;3.30;;;29.60;40.30;;;;;;7709617;23;20009;-74
2022/05/22 08:59:14;;;;;;;11.95;3.75;;;29.70;40.20;;;;;;7704916;23;20020;-73
2022/05/22 09:02:23;;;;;;;15.05;3.95;;;29.90;40.00;;;;;;7460318;23;20102;-73
2022/05/22 09:05:28;;;;;;;5.90;3.30;;;30.10;39.90;;;;;;7462380;23;20059;-73
2022/05/22 09:08:40;;;;;;;13.60;4.35;;;30.30;39.70;;;;;;7484678;23;20123;-72
2022/05/22 09:12:00;;;;;;;8.00;3.78;;;30.30;39.60;;;;;;7460850;23;20031;-74
2022/05/22 09:15:22;;;;;;;11.10;3.53;;;30.40;39.60;;;;;;7487048;23;20030;-73
2022/05/22 09:18:46;;;;;;;9.57;3.42;;;30.50;39.30;;;;;;7465526;23;20070;-73
2022/05/22 09:21:55;;;;;;;9.80;3.53;;;30.50;39.20;;;;;;7463672;23;20019;-73
2022/05/22 09:25:08;;;;;;;11.90;4.13;;;30.70;39.60;;;;;;7489356;23;20007;-73
2022/05/22 09:28:30;;;;;;;13.25;6.97;;;30.90;39.00;;;;;;7464373;23;20032;-73
2022/05/22 09:31:56;;;;;;;11.80;4.30;;;31.10;39.00;;;;;;7487969;23;20041;-74
2022/05/22 09:35:25;;;;;;;9.13;4.20;;;31.20;38.80;;;;;;7488155;23;20059;-73
2022/05/22 09:38:53;;;;;;;10.43;5.72;;;31.30;38.70;;;;;;7525312;23;20021;-71
2022/05/22 09:42:02;;;;;;;10.18;4.68;;;31.40;38.60;;;;;;7557912;23;20331;-71
2022/05/22 09:45:28;;;;;;;11.80;4.15;;;31.50;38.40;;;;;;7559500;23;20073;-72
2022/05/22 09:48:56;;;;;;;11.85;3.85;;;31.50;38.10;;;;;;7489256;23;20011;-71
2022/05/22 09:52:22;;;;;;;7.57;3.40;;;31.60;38.00;;;;;;7552424;23;20041;-71
2022/05/22 09:55:40;;;;;;;23.17;11.35;;;31.60;37.40;;;;;;7538340;23;20025;-71
2022/05/22 09:58:53;;;;;;;16.98;4.65;;;31.70;36.80;;;;;;7561543;23;20414;-72
2022/05/22 10:01:58;;;;;;;14.48;7.43;;;31.70;36.50;;;;;;7560738;23;20110;-72
2022/05/22 10:05:16;;;;;;;16.52;6.25;;;31.70;36.30;;;;;;7560944;23;20022;-72
2022/05/22 10:08:37;;;;;;;16.00;4.57;;;31.70;36.30;;;;;;7561535;23;20019;-72
2022/05/22 10:11:48;;;;;;;10.88;4.45;;;31.90;36.30;;;;;;7505160;23;20015;-72
2022/05/22 10:15:11;;;;;;;8.98;3.75;;;32.10;36.10;;;;;;7525289;23;20023;-72
2022/05/22 10:18:30;;;;;;;14.18;4.10;;;32.40;35.70;;;;;;7599498;23;20076;-70
2022/05/22 10:21:39;;;;;;;12.15;3.72;;;32.50;35.40;;;;;;7656315;23;20029;-72
2022/05/22 10:25:04;;;;;;;20.67;6.90;;;32.60;35.00;;;;;;7653322;23;20018;-71
2022/05/22 10:28:21;;;;;;;12.02;4.90;;;32.60;35.20;;;;;;7669857;23;20036;-71
2022/05/22 10:31:28;;;;;;;9.45;3.70;;;32.80;35.10;;;;;;7671831;23;20024;-72
2022/05/22 10:34:45;;;;;;;13.25;4.63;;;32.80;35.00;;;;;;7672584;23;20055;-71
2022/05/22 10:37:53;;;;;;;11.38;4.43;;;32.90;35.00;;;;;;7643902;23;20021;-71
2022/05/22 10:44:19;;;;;;;18.00;3.90;;;32.80;34.50;;;;;;7670235;23;20037;-72
2022/05/22 10:47:30;;;;;;;23.42;9.48;;;32.80;34.80;;;;;;7670725;23;20355;-72
2022/05/22 10:50:31;;;;;;;13.60;6.32;;;32.80;34.90;;;;;;7667079;23;20017;-71
2022/05/22 10:53:47;;;;;;;9.52;4.13;;;33.00;34.90;;;;;;7663123;23;20436;-73
2022/05/22 10:56:48;;;;;;;17.17;4.50;;;33.00;34.60;;;;;;7634646;23;20088;-72
2022/05/22 10:59:49;;;;;;;10.55;3.88;;;33.20;34.50;;;;;;7662395;23;20024;-72
2022/05/22 11:02:51;;;;;;;13.82;4.03;;;33.60;34.10;;;;;;7663017;23;20079;-73
2022/05/22 11:05:56;;;;;;;13.45;4.18;;;34.10;33.30;;;;;;7663320;23;21401;-71
2022/05/22 11:08:58;;;;;;;14.00;4.13;;;34.30;32.90;;;;;;7635579;23;20041;-73
2022/05/22 11:12:12;;;;;;;9.88;3.50;;;34.40;32.90;;;;;;7636383;23;20009;-72
2022/05/22 11:15:27;;;;;;;13.32;3.70;;;34.30;33.20;;;;;;7660138;23;20059;-77
2022/05/22 11:18:32;;;;;;;17.00;3.88;;;34.40;33.20;;;;;;7640085;23;20071;-75
2022/05/22 11:21:45;;;;;;;12.32;3.83;;;34.80;32.90;;;;;;7648851;23;20680;-70
2022/05/22 11:24:49;;;;;;;13.43;4.00;;;35.10;32.60;;;;;;7639562;23;20080;-72
2022/05/22 11:28:06;;;;;;;6.95;4.00;;;35.40;32.10;;;;;;7637207;23;20009;-71
2022/05/22 11:31:38;;;;;;;6.57;3.65;;;36.00;31.60;;;;;;7614411;23;20179;-72
2022/05/22 11:35:08;;;;;;;7.22;3.70;;;36.60;30.70;;;;;;7653485;23;20030;-72
2022/05/22 11:38:52;;;;;;;11.55;5.10;;;36.90;30.00;;;;;;7566232;23;20060;-72
2022/05/22 11:41:58;;;;;;;14.70;4.13;;;37.20;29.80;;;;;;7570303;23;20024;-72
2022/05/22 11:45:05;;;;;;;6.82;3.33;;;37.40;29.50;;;;;;7544899;23;20081;-72
2022/05/22 11:48:24;;;;;;;8.90;3.40;;;37.70;29.10;;;;;;7568029;23;20397;-71
2022/05/22 11:51:43;;;;;;;9.98;3.50;;;37.80;28.80;;;;;;7590793;23;20365;-73
2022/05/22 11:55:19;;;;;;;6.85;3.67;;;38.10;28.60;;;;;;7567462;23;20076;-72
2022/05/22 11:58:31;;;;;;;11.50;3.90;;;38.50;28.30;;;;;;7451009;23;20019;-72
2022/05/22 12:01:38;;;;;;;11.70;4.07;;;39.00;27.70;;;;;;7450874;23;20046;-72
2022/05/22 12:04:49;;;;;;;6.95;3.75;;;39.40;27.30;;;;;;7452096;23;20313;-72
2022/05/22 12:08:04;;;;;;;6.78;3.55;;;39.70;27.40;;;;;;7453336;23;20027;-72
2022/05/22 12:11:14;;;;;;;6.63;3.03;;;40.00;27.00;;;;;;7438948;23;20020;-72
2022/05/22 12:14:28;;;;;;;18.92;5.22;;;40.30;26.80;;;;;;7485923;23;20177;-72
2022/05/22 12:17:53;;;;;;;7.18;3.40;;;40.50;26.10;;;;;;7498109;23;20022;-72
2022/05/22 12:20:54;;;;;;;8.10;3.53;;;40.60;26.10;;;;;;7494803;23;20395;-71
2022/05/22 12:24:10;;;;;;;11.10;3.88;;;40.80;26.00;;;;;;7509611;23;20029;-71
2022/05/22 12:27:25;;;;;;;10.93;3.78;;;40.80;25.60;;;;;;7555775;23;20050;-72
2022/05/22 12:30:40;;;;;;;10.43;3.42;;;40.90;25.50;;;;;;7555319;23;20019;-70
2022/05/22 12:33:41;;;;;;;10.95;3.33;;;41.20;25.40;;;;;;7560502;23;20376;-71
2022/05/22 12:36:47;;;;;;;9.43;3.47;;;41.60;25.00;;;;;;7667406;23;20320;-71
2022/05/22 12:40:05;;;;;;;7.37;3.60;;;41.80;24.60;;;;;;7643816;23;20349;-72
2022/05/22 12:43:09;;;;;;;9.93;3.60;;;41.90;24.40;;;;;;7667246;23;20013;-71
2022/05/22 12:46:12;;;;;;;10.88;3.88;;;42.20;24.00;;;;;;7669310;23;20036;-72
2022/05/22 12:49:30;;;;;;;11.45;3.67;;;42.50;23.60;;;;;;7669909;22;20163;-71
2022/05/22 12:52:33;;;;;;;8.27;3.53;;;42.70;23.30;;;;;;7709572;23;20327;-71
2022/05/22 12:55:38;;;;;;;9.18;3.28;;;42.80;23.20;;;;;;7661294;23;20016;-71
2022/05/22 12:58:43;;;;;;;9.25;3.70;;;43.00;23.10;;;;;;7671078;23;20396;-71
2022/05/22 13:01:46;;;;;;;7.72;3.92;;;43.20;23.10;;;;;;7671098;23;20375;-71
2022/05/22 13:04:57;;;;;;;6.03;3.28;;;43.40;22.50;;;;;;7646960;23;20024;-71
2022/05/22 13:07:58;;;;;;;12.38;3.70;;;43.60;22.40;;;;;;7669873;23;20009;-70
2022/05/22 13:11:06;;;;;;;14.27;3.80;;;43.70;22.30;;;;;;7670628;23;20320;-71
2022/05/22 13:14:40;;;;;;;7.43;3.50;;;44.00;22.30;;;;;;7709199;23;20020;-71
2022/05/22 13:17:53;;;;;;;8.55;3.70;;;44.60;21.90;;;;;;7681522;23;20408;-72
2022/05/22 13:20:58;;;;;;;7.40;3.13;;;44.90;21.60;;;;;;7708532;23;20070;-72
2022/05/22 13:24:05;;;;;;;7.10;3.40;;;44.90;21.60;;;;;;7682734;23;20016;-71
2022/05/22 13:27:22;;;;;;;9.73;3.80;;;45.00;21.40;;;;;;7655899;23;20009;-72
2022/05/22 13:30:29;;;;;;;6.13;3.13;;;45.50;21.00;;;;;;7659758;23;20288;-72
2022/05/22 13:33:32;;;;;;;11.55;3.42;;;46.40;20.60;;;;;;7682348;23;20016;-71
2022/05/22 13:36:40;;;;;;;11.80;3.35;;;47.00;20.20;;;;;;7684962;23;20023;-72
2022/05/22 13:39:56;;;;;;;9.65;3.42;;;47.40;19.80;;;;;;7685538;23;20031;-71
2022/05/22 13:42:57;;;;;;;7.00;3.60;;;47.90;19.50;;;;;;7683230;23;20020;-71
2022/05/22 13:46:13;;;;;;;9.23;3.38;;;48.20;19.20;;;;;;7709608;23;20267;-71
2022/05/22 13:49:23;;;;;;;19.97;4.30;;;48.10;19.10;;;;;;7684060;23;20024;-72
2022/05/22 13:52:54;;;;;;;8.88;3.60;;;48.30;19.00;;;;;;7683866;23;20442;-73
2022/05/22 13:55:56;;;;;;;9.70;3.40;;;48.60;18.70;;;;;;7684034;23;20013;-71
2022/05/22 13:58:57;;;;;;;12.35;3.42;;;49.00;18.30;;;;;;7685432;23;20083;-71
2022/05/22 14:02:11;;;;;;;13.02;3.38;;;49.20;18.10;;;;;;7660002;23;20008;-74
2022/05/22 14:05:13;;;;;;;11.20;3.40;;;49.30;17.70;;;;;;7684443;23;20026;-73
2022/05/22 14:08:21;;;;;;;10.00;3.17;;;49.60;17.50;;;;;;7669471;23;20044;-73
2022/05/22 14:11:30;;;;;;;13.40;3.88;;;49.70;17.30;;;;;;7660266;23;20024;-74
2022/05/22 14:14:33;;;;;;;11.80;5.90;;;49.40;17.20;;;;;;7685032;23;20028;-74
2022/05/22 14:17:36;;;;;;;11.85;4.10;;;49.00;17.50;;;;;;7659358;23;20009;-73
2022/05/22 14:20:41;;;;;;;21.20;4.20;;;48.70;17.60;;;;;;7710081;23;20882;-73
2022/05/22 14:27:21;;;;;;;7.43;3.13;;;48.30;17.70;;;;;;7707950;23;20043;-72
2022/05/22 14:30:33;;;;;;;5.80;2.50;;;48.00;18.10;;;;;;7681444;23;20023;-74
2022/05/22 14:33:38;;;;;;;12.75;3.30;;;47.40;18.10;;;;;;7708839;23;23120;-71
2022/05/22 14:36:52;;;;;;;9.13;3.20;;;46.40;19.40;;;;;;7708768;23;20017;-73
2022/05/22 14:39:54;;;;;;;7.28;2.88;;;45.50;19.70;;;;;;7680314;23;20088;-72
2022/05/22 14:42:58;;;;;;;5.75;3.00;;;44.80;20.40;;;;;;7690551;23;20051;-73
2022/05/22 14:46:00;;;;;;;10.25;3.35;;;43.80;20.90;;;;;;7704441;23;20031;-73
2022/05/22 14:49:16;;;;;;;10.32;3.22;;;43.00;21.70;;;;;;7704873;23;20488;-71
2022/05/22 14:52:25;;;;;;;12.80;4.03;;;42.10;22.40;;;;;;7678486;23;20439;-72
2022/05/22 14:55:38;;;;;;;13.82;5.00;;;41.30;23.00;;;;;;7681406;23;20453;-72
2022/05/22 14:58:50;;;;;;;9.20;2.92;;;40.60;23.70;;;;;;7683332;23;20086;-73
2022/05/22 15:01:54;;;;;;;6.57;3.25;;;40.00;24.30;;;;;;7683125;23;20012;-74
2022/05/22 15:04:56;;;;;;;16.27;4.18;;;39.70;24.80;;;;;;7695474;23;20017;-73
2022/05/22 15:08:07;;;;;;;5.82;3.33;;;39.40;25.00;;;;;;7684246;23;20371;-72
2022/05/22 15:11:20;;;;;;;12.02;3.03;;;39.20;25.30;;;;;;7709814;23;20008;-73
2022/05/22 15:14:27;;;;;;;8.95;2.80;;;39.10;25.40;;;;;;7659728;23;20035;-73
2022/05/22 15:17:31;;;;;;;8.85;3.92;;;39.10;25.50;;;;;;7709995;23;20332;-73
2022/05/22 15:20:37;;;;;;;17.58;3.35;;;39.10;25.40;;;;;;7682253;23;20332;-73
2022/05/22 15:27:04;;;;;;;12.43;3.72;;;39.90;24.80;;;;;;7705364;23;20020;-72
2022/05/22 15:30:15;;;;;;;8.45;3.60;;;40.10;24.60;;;;;;7707298;23;20031;-73
2022/05/22 15:33:25;;;;;;;12.32;3.33;;;40.10;24.50;;;;;;7706524;23;20079;-73
2022/05/22 15:36:30;;;;;;;13.68;3.10;;;39.90;24.40;;;;;;7706977;23;20008;-72
2022/05/22 15:39:32;;;;;;;11.10;3.20;;;39.80;24.70;;;;;;7708190;23;20043;-72
2022/05/22 15:42:33;;;;;;;6.93;3.40;;;39.50;24.80;;;;;;7682119;23;20020;-73
2022/05/22 15:45:35;;;;;;;14.32;3.28;;;39.30;25.20;;;;;;7657800;23;20012;-72
2022/05/22 15:52:10;;;;;;;12.27;3.70;;;38.60;25.90;;;;;;7680522;23;20009;-73
2022/05/22 15:55:13;;;;;;;8.68;3.15;;;38.50;26.10;;;;;;7682105;23;20013;-73
2022/05/22 15:58:14;;;;;;;11.20;3.00;;;38.30;26.30;;;;;;7682835;23;20073;-73
2022/05/22 16:01:18;;;;;;;11.10;3.20;;;38.30;26.30;;;;;;7654899;23;20016;-73
2022/05/22 16:04:21;;;;;;;9.38;3.85;;;38.30;26.30;;;;;;7680906;23;20043;-73
2022/05/22 16:07:22;;;;;;;6.95;3.13;;;38.30;26.60;;;;;;7681987;23;20097;-73
2022/05/22 16:10:28;;;;;;;12.88;3.58;;;38.40;26.90;;;;;;7679460;23;20128;-72
2022/05/22 16:13:29;;;;;;;17.85;8.10;;;38.40;27.10;;;;;;7681440;23;20039;-73
2022/05/22 16:16:30;;;;;;;26.25;13.38;;;38.30;27.30;;;;;;7706769;23;20017;-74
2022/05/22 16:19:36;;;;;;;28.38;14.02;;;38.30;27.40;;;;;;7681991;23;20020;-73
2022/05/22 16:22:39;;;;;;;32.13;15.15;;;38.30;27.60;;;;;;7707381;23;20031;-73
2022/05/22 16:25:40;;;;;;;19.75;7.47;;;38.10;27.80;;;;;;7657305;23;20023;-74
2022/05/22 16:28:41;;;;;;;19.13;7.82;;;37.90;28.00;;;;;;7680774;23;20016;-72
2022/05/22 16:31:42;;;;;;;18.92;6.80;;;37.60;28.30;;;;;;7682154;23;20016;-72
2022/05/22 16:34:43;;;;;;;10.73;4.78;;;37.30;28.60;;;;;;7690909;23;20017;-72
2022/05/22 16:37:46;;;;;;;12.40;4.45;;;37.10;28.80;;;;;;7652664;23;20384;-72